createdAt,value
2023-03-28T00:04:03.594Z,76.14
2023-03-28T00:09:11.630Z,76.36
2023-03-28T00:14:22.328Z,76.26
2023-03-28T00:19:33.473Z,76.02
2023-03-28T00:24:40.223Z,77.05
2023-03-28T00:29:46.844Z,76.83
2023-03-28T00:34:54.921Z,76.83
2023-03-28T00:40:02.152Z,77.62
2023-03-28T00:45:13.940Z,78.27
2023-03-28T00:50:27.748Z,77.93
2023-03-28T00:55:43.139Z,78.61
2023-03-28T01:00:49.678Z,78.25
2023-03-28T01:05:58.949Z,78.08
2023-03-28T01:11:16.747Z,77.75
2023-03-28T01:16:24.688Z,77.81
2023-03-28T01:22:35.282Z,76.78
2023-03-28T01:27:52.553Z,77.41
2023-03-28T01:33:43.336Z,78.16
2023-03-28T01:38:56.743Z,78.91
2023-03-28T01:44:11.335Z,79.68
2023-03-28T01:49:28.312Z,79.56
2023-03-28T01:54:45.251Z,78.95
2023-03-28T02:00:02.465Z,78.75
2023-03-28T02:05:15.682Z,78.83
2023-03-28T02:10:29.396Z,79.71
2023-03-28T02:15:42.620Z,79.59
2023-03-28T02:21:12.796Z,79.75
2023-03-28T02:26:39.956Z,80.13
2023-03-28T02:31:56.783Z,79.90
2023-03-28T02:37:20.054Z,80.67
2023-03-28T02:43:27.906Z,79.75
2023-03-28T02:49:09.089Z,80.08
2023-03-28T02:54:28.920Z,80.40
2023-03-28T03:00:12.726Z,80.32
2023-03-28T03:05:21.676Z,80.98
2023-03-28T03:10:28.225Z,81.84
2023-03-28T03:15:36.155Z,81.25
2023-03-28T03:21:03.273Z,81.38
2023-03-28T03:26:09.906Z,81.03
2023-03-28T03:31:23.593Z,80.70
2023-03-28T03:36:55.286Z,81.42
2023-03-28T03:42:02.409Z,81.43
2023-03-28T03:47:12.553Z,81.95
2023-03-28T03:52:19.837Z,81.60
2023-03-28T03:57:26.448Z,81.61
2023-03-28T04:02:40.387Z,82.63
2023-03-28T04:07:47.802Z,81.21
2023-03-28T04:13:06.816Z,81.24
2023-03-28T04:18:19.819Z,80.65
2023-03-28T04:23:27.950Z,81.59
2023-03-28T04:28:35.058Z,81.46
2023-03-28T04:33:47.284Z,81.48
2023-03-28T04:38:58.591Z,81.71
2023-03-28T04:44:24.168Z,81.56
2023-03-28T04:49:41.116Z,81.20
2023-03-28T04:54:48.037Z,81.58
2023-03-28T04:59:56.595Z,81.90
2023-03-28T05:05:23.545Z,81.67
2023-03-28T05:10:30.355Z,81.36
2023-03-28T05:15:44.440Z,81.30
2023-03-28T05:21:11.021Z,81.25
2023-03-28T05:26:17.861Z,81.08
2023-03-28T05:31:26.327Z,81.24
2023-03-28T05:36:48.037Z,81.12
2023-03-28T05:42:10.334Z,81.39
2023-03-28T05:47:19.293Z,81.10
2023-03-28T05:52:27.146Z,81.65
2023-03-28T05:57:33.551Z,82.25
2023-03-28T06:02:43.560Z,82.13
2023-03-28T06:07:51.489Z,82.22
2023-03-28T06:12:58.306Z,82.27
2023-03-28T06:18:05.006Z,82.49
2023-03-28T06:23:13.830Z,82.55
2023-03-28T06:28:21.150Z,82.52
2023-03-28T06:33:54.312Z,82.45
2023-03-28T06:39:03.464Z,82.33
2023-03-28T06:44:11.057Z,82.02
2023-03-28T06:49:51.188Z,81.90
2023-03-28T06:55:38.743Z,81.89
2023-03-28T07:00:45.976Z,82.05
2023-03-28T07:06:13.641Z,81.27
2023-03-28T07:11:21.528Z,80.90
2023-03-28T07:16:30.263Z,81.03
2023-03-28T07:21:36.956Z,80.97
2023-03-28T07:26:45.677Z,80.58
2023-03-28T07:31:52.341Z,80.48
2023-03-28T07:36:58.797Z,80.46
2023-03-28T07:42:30.095Z,80.64
2023-03-28T07:47:36.893Z,80.12
2023-03-28T07:52:45.905Z,80.00
2023-03-28T07:57:54.987Z,79.61
2023-03-28T08:03:09.536Z,78.98
2023-03-28T08:08:16.219Z,78.49
2023-03-28T08:13:24.736Z,78.31
2023-03-28T08:18:31.905Z,78.54
2023-03-28T08:23:38.449Z,80.59
2023-03-28T08:29:07.903Z,80.66
2023-03-28T08:34:14.594Z,81.80
2023-03-28T08:39:22.101Z,83.11
2023-03-28T08:44:48.500Z,82.55
2023-03-28T08:50:02.266Z,81.40
2023-03-28T08:55:29.688Z,81.39
2023-03-28T09:00:39.622Z,81.01
2023-03-28T09:05:51.308Z,80.31
2023-03-28T09:11:04.974Z,80.02
2023-03-28T09:16:41.459Z,79.51
2023-03-28T09:22:15.817Z,78.83
2023-03-28T09:27:34.264Z,75.72
2023-03-28T09:32:45.640Z,74.97
2023-03-28T09:37:55.861Z,75.37
2023-03-28T09:43:14.664Z,73.55
2023-03-28T09:48:32.188Z,73.79
2023-03-28T09:53:43.673Z,74.01
2023-03-28T09:58:54.687Z,73.04
2023-03-28T10:04:34.527Z,72.46
2023-03-28T10:10:23.934Z,72.21
2023-03-28T10:15:42.321Z,70.45
2023-03-28T10:21:16.447Z,69.85
2023-03-28T10:26:29.207Z,68.92
2023-03-28T10:31:39.912Z,68.08
2023-03-28T10:37:23.205Z,67.35
2023-03-28T10:42:46.521Z,65.62
2023-03-28T10:48:17.519Z,65.75
2023-03-28T10:53:45.421Z,66.98
2023-03-28T10:59:12.724Z,66.55
2023-03-28T11:04:49.256Z,64.86
2023-03-28T11:10:09.686Z,66.11
2023-03-28T11:15:54.324Z,65.60
2023-03-28T11:21:21.845Z,63.85
2023-03-28T11:26:42.268Z,62.53
2023-03-28T11:32:25.431Z,63.46
2023-03-28T11:37:39.282Z,61.67
2023-03-28T11:42:53.199Z,61.58
2023-03-28T11:48:09.440Z,61.25
2023-03-28T11:53:24.576Z,61.18
2023-03-28T11:58:45.219Z,58.34
2023-03-28T12:04:04.890Z,60.22
2023-03-28T12:09:21.983Z,59.82
2023-03-28T12:14:46.491Z,58.20
2023-03-28T12:20:20.659Z,58.37
2023-03-28T12:25:35.682Z,57.54
2023-03-28T12:30:50.688Z,59.97
2023-03-28T12:36:08.352Z,57.37
2023-03-28T12:41:21.153Z,58.32
2023-03-28T12:46:38.520Z,60.38
2023-03-28T12:51:50.627Z,61.25
2023-03-28T12:57:06.575Z,60.98
2023-03-28T13:02:31.919Z,61.82
2023-03-28T13:08:00.860Z,61.19
2023-03-28T13:13:28.003Z,60.78
2023-03-28T13:18:37.051Z,60.95
2023-03-28T13:23:52.948Z,60.18
2023-03-28T13:29:02.695Z,61.75
2023-03-28T13:34:23.994Z,62.71
2023-03-28T13:39:30.491Z,61.53
2023-03-28T13:44:44.888Z,62.21
2023-03-28T13:50:00.647Z,62.39
2023-03-28T13:55:23.524Z,62.74
2023-03-28T14:00:32.606Z,61.37
2023-03-28T14:05:47.258Z,61.80
2023-03-28T14:10:57.220Z,61.18
2023-03-28T14:16:10.530Z,59.06
2023-03-28T14:21:19.520Z,60.16
2023-03-28T14:26:30.116Z,61.98
2023-03-28T14:31:40.798Z,62.33
2023-03-28T14:37:03.905Z,61.84
2023-03-28T14:42:16.944Z,63.37
2023-03-28T14:47:29.726Z,61.49
2023-03-28T14:52:41.394Z,61.98
2023-03-28T14:57:50.930Z,61.97
2023-03-28T15:02:58.392Z,62.45
2023-03-28T15:08:08.987Z,64.05
2023-03-28T15:13:23.347Z,63.16
2023-03-28T15:18:34.415Z,65.77
2023-03-28T15:23:49.125Z,72.23
2023-03-28T15:28:57.248Z,75.71
2023-03-28T15:34:03.917Z,75.95
2023-03-28T15:39:25.852Z,75.35
2023-03-28T15:44:34.722Z,74.59
2023-03-28T15:49:41.785Z,73.09
2023-03-28T15:54:53.981Z,72.48
2023-03-28T16:00:01.346Z,71.86
2023-03-28T16:05:32.259Z,72.55
2023-03-28T16:10:40.366Z,72.62
2023-03-28T16:16:09.165Z,72.63
2023-03-28T16:21:28.765Z,72.54
2023-03-28T16:26:36.924Z,71.06
2023-03-28T16:31:43.999Z,69.71
2023-03-28T16:36:50.761Z,69.08
2023-03-28T16:41:58.848Z,68.87
2023-03-28T16:47:06.156Z,68.36
2023-03-28T16:52:12.685Z,69.01
2023-03-28T16:57:20.800Z,68.43
2023-03-28T17:02:28.321Z,68.41
2023-03-28T17:07:36.170Z,68.63
2023-03-28T17:12:45.591Z,69.57
2023-03-28T17:17:53.405Z,68.29
2023-03-28T17:23:01.319Z,69.17
2023-03-28T17:28:10.100Z,68.75
2023-03-28T17:33:18.487Z,69.66
2023-03-28T17:38:28.450Z,70.02
2023-03-28T17:43:38.859Z,70.10
2023-03-28T17:48:48.445Z,70.28
2023-03-28T17:53:59.116Z,70.81
2023-03-28T17:59:13.353Z,70.85
2023-03-28T18:04:24.546Z,70.76
2023-03-28T18:09:33.481Z,71.13
2023-03-28T18:14:43.248Z,70.46
2023-03-28T18:19:53.677Z,70.36
2023-03-28T18:25:04.583Z,69.91
2023-03-28T18:30:18.481Z,69.76
2023-03-28T18:35:28.644Z,69.19
2023-03-28T18:40:42.358Z,68.99
2023-03-28T18:45:58.375Z,68.74
2023-03-28T18:51:09.312Z,68.91
2023-03-28T18:56:21.369Z,68.38
2023-03-28T19:01:35.114Z,68.19
2023-03-28T19:06:46.413Z,67.50
2023-03-28T19:11:56.415Z,67.54
2023-03-28T19:17:13.525Z,67.40
2023-03-28T19:22:22.922Z,67.53
2023-03-28T19:27:31.703Z,67.32
2023-03-28T19:32:41.683Z,68.19
2023-03-28T19:37:51.665Z,68.64
2023-03-28T19:43:03.181Z,68.37
2023-03-28T19:48:16.693Z,68.70
2023-03-28T19:53:25.454Z,68.68
2023-03-28T19:58:36.767Z,68.82
2023-03-28T20:03:53.376Z,69.18
2023-03-28T20:09:06.077Z,68.67
2023-03-28T20:14:19.910Z,69.25
2023-03-28T20:19:34.818Z,70.00
2023-03-28T20:24:49.652Z,69.67
2023-03-28T20:29:58.539Z,69.34
2023-03-28T20:35:10.861Z,68.32
2023-03-28T20:40:18.581Z,68.06
2023-03-28T20:45:26.083Z,67.25
2023-03-28T20:50:35.921Z,66.69
2023-03-28T20:55:43.738Z,66.82
2023-03-28T21:00:54.111Z,66.64
2023-03-28T21:06:02.426Z,66.43
2023-03-28T21:11:09.442Z,66.96
2023-03-28T21:16:17.144Z,67.41
2023-03-28T21:21:25.756Z,67.34
2023-03-28T21:26:32.436Z,67.69
2023-03-28T21:31:39.476Z,67.48
2023-03-28T21:36:48.888Z,67.86
2023-03-28T21:41:55.219Z,68.14
2023-03-28T21:47:01.841Z,68.10
2023-03-28T21:52:09.968Z,68.10
2023-03-28T21:57:16.749Z,68.39
2023-03-28T22:02:23.406Z,68.63
2023-03-28T22:07:31.333Z,68.83
2023-03-28T22:12:37.971Z,69.24
2023-03-28T22:17:45.417Z,69.22
2023-03-28T22:22:53.414Z,69.42
2023-03-28T22:28:00.062Z,69.23
2023-03-28T22:33:09.302Z,69.25
2023-03-28T22:38:17.390Z,69.42
2023-03-28T22:43:25.688Z,69.61
2023-03-28T22:48:32.400Z,69.55
2023-03-28T22:53:40.869Z,69.63
2023-03-28T22:58:54.353Z,69.64
2023-03-28T23:04:01.173Z,69.00
2023-03-28T23:09:10.048Z,68.63
2023-03-28T23:14:16.830Z,68.50
2023-03-28T23:19:24.484Z,68.98
2023-03-28T23:24:32.687Z,69.76
2023-03-28T23:29:39.025Z,69.18
2023-03-28T23:34:45.451Z,69.38
2023-03-28T23:39:53.470Z,69.73
2023-03-28T23:44:59.666Z,69.48
2023-03-28T23:50:07.097Z,70.19
2023-03-28T23:55:15.633Z,70.02
